Terminal Aerodrome Forecast
Issued by NWS Denver/Boulder, CO

Home | Current Version | Previous Version | Text Only | Print | Product List | Glossary On
Versions: 1 2 3 4 5 6 7 8 9 10 11 12 13 14 15 16 17 18 19 20 21 22 23 24 25 26 27 28 29 30 31 32 33 34 35 36 37 38 39 40 41 42 43 44 45 46 47 48 49 50
000
FTUS45 KBOU 232339
TAFDEN
TAF
KDEN 232339Z 2400/2506 17020G30KT P6SM SCT090 SCT140 BKN200
     FM240030 01024G34KT 5SM BLDU SCT090 BKN140
     FM240200 02014G20KT P6SM SCT060 BKN090
     FM240500 06009KT P6SM VCSH FEW030 BKN060
     FM240900 13007KT P6SM FEW030 BKN050
     FM241200 18007KT P6SM FEW090 SCT150
     FM241900 02011KT P6SM SCT090 SCT150
     FM250200 05008KT P6SM SCT090 SCT150=

USA.gov is the U.S. government's official web portal to all federal, state and local government web resources and services.